sensor_id;sensor_type;location;lat;lon;timestamp;pressure;altitude;pressure_sealevel;temperature
66180;BMP280;52986;44.028;20.466;2023-04-25T00:00:37;97146.34;;;13.42
66180;BMP280;52986;44.028;20.466;2023-04-25T00:03:02;97137.72;;;13.38
66180;BMP280;52986;44.028;20.466;2023-04-25T00:05:28;97142.09;;;13.30
66180;BMP280;52986;44.028;20.466;2023-04-25T00:07:54;97144.53;;;13.28
66180;BMP280;52986;44.028;20.466;2023-04-25T00:10:20;97145.69;;;13.22
66180;BMP280;52986;44.028;20.466;2023-04-25T00:12:45;97150.72;;;13.14
66180;BMP280;52986;44.028;20.466;2023-04-25T00:15:11;97149.53;;;13.15
66180;BMP280;52986;44.028;20.466;2023-04-25T00:17:37;97156.28;;;13.05
66180;BMP280;52986;44.028;20.466;2023-04-25T00:20:04;97153.34;;;13.03
66180;BMP280;52986;44.028;20.466;2023-04-25T00:22:36;97152.78;;;12.99
66180;BMP280;52986;44.028;20.466;2023-04-25T00:25:04;97156.72;;;12.98
66180;BMP280;52986;44.028;20.466;2023-04-25T00:27:29;97163.44;;;12.88
66180;BMP280;52986;44.028;20.466;2023-04-25T00:29:55;97164.41;;;12.85
66180;BMP280;52986;44.028;20.466;2023-04-25T00:32:20;97162.91;;;12.83
66180;BMP280;52986;44.028;20.466;2023-04-25T00:34:46;97154.09;;;12.83
66180;BMP280;52986;44.028;20.466;2023-04-25T00:37:11;97157.00;;;12.79
66180;BMP280;52986;44.028;20.466;2023-04-25T00:39:37;97161.28;;;12.71
66180;BMP280;52986;44.028;20.466;2023-04-25T00:42:03;97157.88;;;12.71
66180;BMP280;52986;44.028;20.466;2023-04-25T00:44:29;97158.09;;;12.67
66180;BMP280;52986;44.028;20.466;2023-04-25T00:46:55;97167.34;;;12.66
66180;BMP280;52986;44.028;20.466;2023-04-25T00:49:21;97166.59;;;12.66
66180;BMP280;52986;44.028;20.466;2023-04-25T00:51:46;97162.94;;;12.63
66180;BMP280;52986;44.028;20.466;2023-04-25T00:54:12;97168.31;;;12.63
66180;BMP280;52986;44.028;20.466;2023-04-25T00:56:39;97165.06;;;12.59
66180;BMP280;52986;44.028;20.466;2023-04-25T00:59:04;97155.53;;;12.58
66180;BMP280;52986;44.028;20.466;2023-04-25T01:01:30;97151.56;;;12.53
66180;BMP280;52986;44.028;20.466;2023-04-25T01:03:58;97166.44;;;12.49
66180;BMP280;52986;44.028;20.466;2023-04-25T01:06:24;97156.91;;;12.48
66180;BMP280;52986;44.028;20.466;2023-04-25T01:08:49;97153.91;;;12.46
66180;BMP280;52986;44.028;20.466;2023-04-25T01:11:16;97153.19;;;12.45
66180;BMP280;52986;44.028;20.466;2023-04-25T01:13:41;97161.50;;;12.47
66180;BMP280;52986;44.028;20.466;2023-04-25T01:16:07;97157.81;;;12.45
66180;BMP280;52986;44.028;20.466;2023-04-25T01:18:32;97156.84;;;12.42
66180;BMP280;52986;44.028;20.466;2023-04-25T01:21:07;97151.38;;;12.37
66180;BMP280;52986;44.028;20.466;2023-04-25T01:23:33;97151.56;;;12.33
66180;BMP280;52986;44.028;20.466;2023-04-25T01:25:58;97149.81;;;12.30
66180;BMP280;52986;44.028;20.466;2023-04-25T01:28:24;97151.50;;;12.28
66180;BMP280;52986;44.028;20.466;2023-04-25T01:30:50;97145.41;;;12.27
66180;BMP280;52986;44.028;20.466;2023-04-25T01:33:17;97142.88;;;12.24
66180;BMP280;52986;44.028;20.466;2023-04-25T01:35:42;97150.69;;;12.22
66180;BMP280;52986;44.028;20.466;2023-04-25T01:38:08;97144.75;;;12.17
66180;BMP280;52986;44.028;20.466;2023-04-25T01:40:34;97142.53;;;12.16
66180;BMP280;52986;44.028;20.466;2023-04-25T01:43:00;97142.31;;;12.14
66180;BMP280;52986;44.028;20.466;2023-04-25T01:45:25;97145.06;;;12.19
66180;BMP280;52986;44.028;20.466;2023-04-25T01:47:51;97150.28;;;12.29
66180;BMP280;52986;44.028;20.466;2023-04-25T01:50:18;97153.50;;;12.33
66180;BMP280;52986;44.028;20.466;2023-04-25T01:52:43;97141.56;;;12.34
66180;BMP280;52986;44.028;20.466;2023-04-25T01:55:09;97143.78;;;12.35
66180;BMP280;52986;44.028;20.466;2023-04-25T01:57:35;97136.72;;;12.38
66180;BMP280;52986;44.028;20.466;2023-04-25T02:00:04;97130.81;;;12.34
66180;BMP280;52986;44.028;20.466;2023-04-25T02:02:29;97136.94;;;12.34
66180;BMP280;52986;44.028;20.466;2023-04-25T02:04:55;97136.47;;;12.36
66180;BMP280;52986;44.028;20.466;2023-04-25T02:07:21;97148.94;;;12.39
66180;BMP280;52986;44.028;20.466;2023-04-25T02:09:46;97146.28;;;12.39
66180;BMP280;52986;44.028;20.466;2023-04-25T02:12:12;97147.75;;;12.40
66180;BMP280;52986;44.028;20.466;2023-04-25T02:14:37;97156.53;;;12.40
66180;BMP280;52986;44.028;20.466;2023-04-25T02:17:03;97151.84;;;12.35
66180;BMP280;52986;44.028;20.466;2023-04-25T02:19:29;97142.09;;;12.38
66180;BMP280;52986;44.028;20.466;2023-04-25T02:21:54;97144.53;;;12.36
66180;BMP280;52986;44.028;20.466;2023-04-25T02:24:21;97137.94;;;12.37
66180;BMP280;52986;44.028;20.466;2023-04-25T02:26:46;97136.94;;;12.34
66180;BMP280;52986;44.028;20.466;2023-04-25T02:29:12;97135.63;;;12.30
66180;BMP280;52986;44.028;20.466;2023-04-25T02:31:38;97135.88;;;12.26
66180;BMP280;52986;44.028;20.466;2023-04-25T02:34:03;97134.19;;;12.29
66180;BMP280;52986;44.028;20.466;2023-04-25T02:36:29;97132.72;;;12.28
66180;BMP280;52986;44.028;20.466;2023-04-25T02:38:57;97138.00;;;12.22
66180;BMP280;52986;44.028;20.466;2023-04-25T02:41:22;97125.78;;;12.21
66180;BMP280;52986;44.028;20.466;2023-04-25T02:43:48;97121.91;;;12.22
66180;BMP280;52986;44.028;20.466;2023-04-25T02:46:14;97117.81;;;12.27
66180;BMP280;52986;44.028;20.466;2023-04-25T02:48:39;97126.88;;;12.29
66180;BMP280;52986;44.028;20.466;2023-04-25T02:51:04;97119.28;;;12.28
66180;BMP280;52986;44.028;20.466;2023-04-25T02:53:30;97121.69;;;12.26
66180;BMP280;52986;44.028;20.466;2023-04-25T02:55:55;97122.16;;;12.24
66180;BMP280;52986;44.028;20.466;2023-04-25T02:58:23;97118.72;;;12.24
66180;BMP280;52986;44.028;20.466;2023-04-25T03:00:48;97122.63;;;12.23
66180;BMP280;52986;44.028;20.466;2023-04-25T03:03:14;97124.59;;;12.22
66180;BMP280;52986;44.028;20.466;2023-04-25T03:05:42;97120.22;;;12.25
66180;BMP280;52986;44.028;20.466;2023-04-25T03:08:08;97130.22;;;12.24
66180;BMP280;52986;44.028;20.466;2023-04-25T03:10:33;97122.53;;;12.17
66180;BMP280;52986;44.028;20.466;2023-04-25T03:12:59;97117.41;;;12.13
66180;BMP280;52986;44.028;20.466;2023-04-25T03:15:24;97114.41;;;12.11
66180;BMP280;52986;44.028;20.466;2023-04-25T03:17:49;97114.88;;;12.10
66180;BMP280;52986;44.028;20.466;2023-04-25T03:20:15;97114.16;;;12.09
66180;BMP280;52986;44.028;20.466;2023-04-25T03:22:41;97116.28;;;12.05
66180;BMP280;52986;44.028;20.466;2023-04-25T03:25:07;97122.44;;;12.06
66180;BMP280;52986;44.028;20.466;2023-04-25T03:27:33;97113.81;;;12.02
66180;BMP280;52986;44.028;20.466;2023-04-25T03:29:58;97119.91;;;12.02
66180;BMP280;52986;44.028;20.466;2023-04-25T03:32:24;97123.34;;;12.03
66180;BMP280;52986;44.028;20.466;2023-04-25T03:34:49;97124.47;;;11.96
66180;BMP280;52986;44.028;20.466;2023-04-25T03:37:14;97119.09;;;11.96
66180;BMP280;52986;44.028;20.466;2023-04-25T03:39:40;97130.13;;;11.98
66180;BMP280;52986;44.028;20.466;2023-04-25T03:42:05;97127.16;;;11.96
66180;BMP280;52986;44.028;20.466;2023-04-25T03:44:30;97135.47;;;11.98
66180;BMP280;52986;44.028;20.466;2023-04-25T03:46:56;97136.97;;;11.99
66180;BMP280;52986;44.028;20.466;2023-04-25T03:49:21;97137.97;;;12.02
66180;BMP280;52986;44.028;20.466;2023-04-25T03:51:47;97128.25;;;12.04
66180;BMP280;52986;44.028;20.466;2023-04-25T03:54:15;97133.16;;;12.06
66180;BMP280;52986;44.028;20.466;2023-04-25T03:56:40;97135.56;;;12.04
66180;BMP280;52986;44.028;20.466;2023-04-25T03:59:06;97137.50;;;12.03
66180;BMP280;52986;44.028;20.466;2023-04-25T04:01:31;97138.53;;;12.06
66180;BMP280;52986;44.028;20.466;2023-04-25T04:03:57;97140.75;;;12.07
66180;BMP280;52986;44.028;20.466;2023-04-25T04:06:22;97141.00;;;12.09
66180;BMP280;52986;44.028;20.466;2023-04-25T04:08:47;97145.91;;;12.11
66180;BMP280;52986;44.028;20.466;2023-04-25T04:11:13;97146.63;;;12.11
66180;BMP280;52986;44.028;20.466;2023-04-25T04:13:38;97144.41;;;12.10
66180;BMP280;52986;44.028;20.466;2023-04-25T04:16:04;97146.63;;;12.11
66180;BMP280;52986;44.028;20.466;2023-04-25T04:18:30;97142.03;;;12.12
66180;BMP280;52986;44.028;20.466;2023-04-25T04:20:55;97149.31;;;12.11
66180;BMP280;52986;44.028;20.466;2023-04-25T04:23:23;97150.91;;;12.18
66180;BMP280;52986;44.028;20.466;2023-04-25T04:25:51;97152.31;;;12.13
66180;BMP280;52986;44.028;20.466;2023-04-25T04:28:17;97149.38;;;12.17
66180;BMP280;52986;44.028;20.466;2023-04-25T04:30:43;97149.16;;;12.15
66180;BMP280;52986;44.028;20.466;2023-04-25T04:33:12;97150.25;;;12.08
66180;BMP280;52986;44.028;20.466;2023-04-25T04:35:37;97151.88;;;12.00
66180;BMP280;52986;44.028;20.466;2023-04-25T04:38:03;97157.41;;;11.97
66180;BMP280;52986;44.028;20.466;2023-04-25T04:40:29;97155.94;;;11.96
66180;BMP280;52986;44.028;20.466;2023-04-25T04:42:56;97159.19;;;12.00
66180;BMP280;52986;44.028;20.466;2023-04-25T04:45:22;97160.28;;;12.08
66180;BMP280;52986;44.028;20.466;2023-04-25T04:47:49;97166.19;;;12.12
66180;BMP280;52986;44.028;20.466;2023-04-25T04:50:14;97169.22;;;12.19
66180;BMP280;52986;44.028;20.466;2023-04-25T04:52:40;97160.56;;;12.30
66180;BMP280;52986;44.028;20.466;2023-04-25T04:55:06;97163.59;;;12.38
66180;BMP280;52986;44.028;20.466;2023-04-25T04:57:31;97163.75;;;12.49
66180;BMP280;52986;44.028;20.466;2023-04-25T04:59:58;97159.97;;;12.61
66180;BMP280;52986;44.028;20.466;2023-04-25T05:02:24;97168.69;;;12.76
66180;BMP280;52986;44.028;20.466;2023-04-25T05:04:49;97164.50;;;12.96
66180;BMP280;52986;44.028;20.466;2023-04-25T05:07:16;97156.44;;;13.22
66180;BMP280;52986;44.028;20.466;2023-04-25T05:09:41;97157.59;;;13.41
66180;BMP280;52986;44.028;20.466;2023-04-25T05:12:06;97161.38;;;13.55
66180;BMP280;52986;44.028;20.466;2023-04-25T05:14:32;97174.06;;;13.54
66180;BMP280;52986;44.028;20.466;2023-04-25T05:16:57;97175.06;;;13.57
66180;BMP280;52986;44.028;20.466;2023-04-25T05:19:23;97174.34;;;13.56
66180;BMP280;52986;44.028;20.466;2023-04-25T05:21:49;97170.44;;;13.57
66180;BMP280;52986;44.028;20.466;2023-04-25T05:24:14;97175.81;;;13.57
66180;BMP280;52986;44.028;20.466;2023-04-25T05:26:40;97176.38;;;13.67
66180;BMP280;52986;44.028;20.466;2023-04-25T05:29:05;97180.13;;;13.75
66180;BMP280;52986;44.028;20.466;2023-04-25T05:31:31;97174.75;;;13.75
66180;BMP280;52986;44.028;20.466;2023-04-25T05:33:57;97183.56;;;13.75
66180;BMP280;52986;44.028;20.466;2023-04-25T05:36:22;97179.59;;;13.71
66180;BMP280;52986;44.028;20.466;2023-04-25T05:38:47;97187.75;;;13.82
66180;BMP280;52986;44.028;20.466;2023-04-25T05:41:13;97193.44;;;13.95
66180;BMP280;52986;44.028;20.466;2023-04-25T05:43:38;97198.78;;;13.90
66180;BMP280;52986;44.028;20.466;2023-04-25T05:46:04;97202.88;;;13.79
66180;BMP280;52986;44.028;20.466;2023-04-25T05:48:29;97207.22;;;13.71
66180;BMP280;52986;44.028;20.466;2023-04-25T05:50:55;97210.16;;;13.68
66180;BMP280;52986;44.028;20.466;2023-04-25T05:53:20;97212.84;;;13.68
66180;BMP280;52986;44.028;20.466;2023-04-25T05:55:47;97221.91;;;13.70
66180;BMP280;52986;44.028;20.466;2023-04-25T05:58:12;97221.34;;;13.61
66180;BMP280;52986;44.028;20.466;2023-04-25T06:00:38;97221.34;;;13.61
66180;BMP280;52986;44.028;20.466;2023-04-25T06:03:03;97235.00;;;13.57
66180;BMP280;52986;44.028;20.466;2023-04-25T06:05:29;97239.56;;;13.77
66180;BMP280;52986;44.028;20.466;2023-04-25T06:07:55;97232.38;;;13.94
66180;BMP280;52986;44.028;20.466;2023-04-25T06:10:21;97236.78;;;13.97
66180;BMP280;52986;44.028;20.466;2023-04-25T06:12:46;97236.66;;;14.12
66180;BMP280;52986;44.028;20.466;2023-04-25T06:15:12;97248.25;;;14.24
66180;BMP280;52986;44.028;20.466;2023-04-25T06:17:37;97248.72;;;14.28
66180;BMP280;52986;44.028;20.466;2023-04-25T06:20:03;97254.16;;;14.33
66180;BMP280;52986;44.028;20.466;2023-04-25T06:22:29;97254.91;;;14.34
66180;BMP280;52986;44.028;20.466;2023-04-25T06:24:54;97262.06;;;14.42
66180;BMP280;52986;44.028;20.466;2023-04-25T06:27:22;97268.00;;;14.58
66180;BMP280;52986;44.028;20.466;2023-04-25T06:29:47;97261.72;;;14.77
66180;BMP280;52986;44.028;20.466;2023-04-25T06:32:13;97277.69;;;14.87
66180;BMP280;52986;44.028;20.466;2023-04-25T06:34:38;97271.84;;;14.94
66180;BMP280;52986;44.028;20.466;2023-04-25T06:37:03;97277.00;;;14.92
66180;BMP280;52986;44.028;20.466;2023-04-25T06:39:29;97275.50;;;14.85
66180;BMP280;52986;44.028;20.466;2023-04-25T06:41:55;97290.69;;;14.88
66180;BMP280;52986;44.028;20.466;2023-04-25T06:44:20;97290.44;;;14.86
66180;BMP280;52986;44.028;20.466;2023-04-25T06:46:48;97292.16;;;14.78
66180;BMP280;52986;44.028;20.466;2023-04-25T06:49:13;97297.94;;;14.65
66180;BMP280;52986;44.028;20.466;2023-04-25T06:51:40;97305.94;;;14.43
66180;BMP280;52986;44.028;20.466;2023-04-25T06:54:05;97316.06;;;14.65
66180;BMP280;52986;44.028;20.466;2023-04-25T06:56:31;97312.69;;;14.70
66180;BMP280;52986;44.028;20.466;2023-04-25T06:58:56;97317.19;;;14.84
66180;BMP280;52986;44.028;20.466;2023-04-25T07:01:22;97315.38;;;14.70
66180;BMP280;52986;44.028;20.466;2023-04-25T07:03:47;97325.59;;;14.55
66180;BMP280;52986;44.028;20.466;2023-04-25T07:06:12;97315.19;;;14.36
66180;BMP280;52986;44.028;20.466;2023-04-25T07:08:38;97329.22;;;14.15
66180;BMP280;52986;44.028;20.466;2023-04-25T07:11:03;97325.31;;;14.16
66180;BMP280;52986;44.028;20.466;2023-04-25T07:13:28;97334.81;;;14.05
66180;BMP280;52986;44.028;20.466;2023-04-25T07:15:55;97333.53;;;14.01
66180;BMP280;52986;44.028;20.466;2023-04-25T07:18:21;97339.47;;;14.10
66180;BMP280;52986;44.028;20.466;2023-04-25T07:20:46;97337.84;;;14.19
66180;BMP280;52986;44.028;20.466;2023-04-25T07:23:11;97344.66;;;14.51
66180;BMP280;52986;44.028;20.466;2023-04-25T07:25:37;97341.84;;;14.71
66180;BMP280;52986;44.028;20.466;2023-04-25T07:28:02;97346.66;;;14.56
66180;BMP280;52986;44.028;20.466;2023-04-25T07:30:28;97332.69;;;14.58
66180;BMP280;52986;44.028;20.466;2023-04-25T07:32:53;97349.31;;;14.51
66180;BMP280;52986;44.028;20.466;2023-04-25T07:35:19;97337.63;;;14.28
66180;BMP280;52986;44.028;20.466;2023-04-25T07:37:44;97337.88;;;14.24
66180;BMP280;52986;44.028;20.466;2023-04-25T07:40:10;97347.13;;;14.18
66180;BMP280;52986;44.028;20.466;2023-04-25T07:42:35;97342.44;;;14.13
66180;BMP280;52986;44.028;20.466;2023-04-25T07:45:01;97340.91;;;13.80
66180;BMP280;52986;44.028;20.466;2023-04-25T07:47:26;97343.97;;;13.67
66180;BMP280;52986;44.028;20.466;2023-04-25T07:49:52;97352.69;;;13.83
66180;BMP280;52986;44.028;20.466;2023-04-25T07:52:17;97350.41;;;14.01
66180;BMP280;52986;44.028;20.466;2023-04-25T07:54:43;97360.50;;;14.06
66180;BMP280;52986;44.028;20.466;2023-04-25T07:57:08;97357.16;;;14.17
66180;BMP280;52986;44.028;20.466;2023-04-25T07:59:34;97358.44;;;14.27
66180;BMP280;52986;44.028;20.466;2023-04-25T08:02:00;97360.94;;;13.99
66180;BMP280;52986;44.028;20.466;2023-04-25T08:04:25;97361.66;;;13.74
66180;BMP280;52986;44.028;20.466;2023-04-25T08:06:51;97359.78;;;13.60
66180;BMP280;52986;44.028;20.466;2023-04-25T08:09:17;97362.97;;;13.58
66180;BMP280;52986;44.028;20.466;2023-04-25T08:11:43;97364.91;;;13.58
66180;BMP280;52986;44.028;20.466;2023-04-25T08:14:12;97372.03;;;13.61
66180;BMP280;52986;44.028;20.466;2023-04-25T08:16:38;97374.97;;;13.83
66180;BMP280;52986;44.028;20.466;2023-04-25T08:19:03;97372.81;;;13.87
66180;BMP280;52986;44.028;20.466;2023-04-25T08:21:30;97387.19;;;14.10
66180;BMP280;52986;44.028;20.466;2023-04-25T08:23:56;97386.94;;;14.08
66180;BMP280;52986;44.028;20.466;2023-04-25T08:26:23;97389.22;;;13.89
66180;BMP280;52986;44.028;20.466;2023-04-25T08:28:49;97394.84;;;14.11
66180;BMP280;52986;44.028;20.466;2023-04-25T08:31:15;97393.56;;;14.07
66180;BMP280;52986;44.028;20.466;2023-04-25T08:33:40;97404.78;;;14.00
66180;BMP280;52986;44.028;20.466;2023-04-25T08:36:09;97401.50;;;13.96
66180;BMP280;52986;44.028;20.466;2023-04-25T08:38:35;97404.22;;;13.96
66180;BMP280;52986;44.028;20.466;2023-04-25T08:41:02;97409.41;;;13.99
66180;BMP280;52986;44.028;20.466;2023-04-25T08:43:29;97408.84;;;14.21
66180;BMP280;52986;44.028;20.466;2023-04-25T08:45:59;97413.31;;;14.24
66180;BMP280;52986;44.028;20.466;2023-04-25T08:48:26;97423.03;;;14.42
66180;BMP280;52986;44.028;20.466;2023-04-25T08:50:54;97420.72;;;14.61
66180;BMP280;52986;44.028;20.466;2023-04-25T08:53:32;97419.19;;;14.54
66180;BMP280;52986;44.028;20.466;2023-04-25T08:55:59;97421.84;;;14.49
66180;BMP280;52986;44.028;20.466;2023-04-25T08:58:27;97428.06;;;14.34
66180;BMP280;52986;44.028;20.466;2023-04-25T09:00:53;97430.56;;;14.38
66180;BMP280;52986;44.028;20.466;2023-04-25T09:03:22;97428.66;;;14.44
66180;BMP280;52986;44.028;20.466;2023-04-25T09:05:47;97428.66;;;14.44
66180;BMP280;52986;44.028;20.466;2023-04-25T09:08:12;97434.69;;;14.65
66180;BMP280;52986;44.028;20.466;2023-04-25T09:10:40;97436.06;;;14.86
66180;BMP280;52986;44.028;20.466;2023-04-25T09:13:24;97441.63;;;15.14
66180;BMP280;52986;44.028;20.466;2023-04-25T09:15:55;97434.84;;;15.30
66180;BMP280;52986;44.028;20.466;2023-04-25T09:18:28;97432.81;;;15.14
66180;BMP280;52986;44.028;20.466;2023-04-25T09:20:56;97432.97;;;14.99
66180;BMP280;52986;44.028;20.466;2023-04-25T09:23:22;97432.25;;;15.04
66180;BMP280;52986;44.028;20.466;2023-04-25T09:25:53;97439.28;;;15.33
66180;BMP280;52986;44.028;20.466;2023-04-25T09:28:26;97432.06;;;15.72
66180;BMP280;52986;44.028;20.466;2023-04-25T09:30:55;97434.84;;;16.17
66180;BMP280;52986;44.028;20.466;2023-04-25T09:33:28;97441.50;;;16.38
66180;BMP280;52986;44.028;20.466;2023-04-25T09:36:14;97438.44;;;16.98
66180;BMP280;52986;44.028;20.466;2023-04-25T09:38:41;97436.66;;;17.75
66180;BMP280;52986;44.028;20.466;2023-04-25T09:41:08;97439.47;;;18.59
66180;BMP280;52986;44.028;20.466;2023-04-25T09:43:34;97419.78;;;19.02
66180;BMP280;52986;44.028;20.466;2023-04-25T09:46:00;97422.59;;;19.52
66180;BMP280;52986;44.028;20.466;2023-04-25T09:48:27;97424.44;;;19.26
66180;BMP280;52986;44.028;20.466;2023-04-25T09:51:12;97429.88;;;19.44
66180;BMP280;52986;44.028;20.466;2023-04-25T09:53:45;97425.22;;;19.21
66180;BMP280;52986;44.028;20.466;2023-04-25T09:56:12;97430.94;;;19.55
66180;BMP280;52986;44.028;20.466;2023-04-25T09:58:39;97418.19;;;19.49
66180;BMP280;52986;44.028;20.466;2023-04-25T10:01:09;97423.91;;;20.42
66180;BMP280;52986;44.028;20.466;2023-04-25T10:03:38;97417.84;;;20.88
66180;BMP280;52986;44.028;20.466;2023-04-25T10:06:10;97413.41;;;20.99
66180;BMP280;52986;44.028;20.466;2023-04-25T10:08:37;97420.97;;;20.92
66180;BMP280;52986;44.028;20.466;2023-04-25T10:11:05;97416.47;;;21.29
66180;BMP280;52986;44.028;20.466;2023-04-25T10:13:32;97453.84;;;23.02
66180;BMP280;52986;44.028;20.466;2023-04-25T10:15:58;97411.50;;;25.43
66180;BMP280;52986;44.028;20.466;2023-04-25T10:18:26;97405.16;;;25.58
66180;BMP280;52986;44.028;20.466;2023-04-25T10:20:54;97438.22;;;26.27
66180;BMP280;52986;44.028;20.466;2023-04-25T10:23:20;97411.28;;;27.04
66180;BMP280;52986;44.028;20.466;2023-04-25T10:25:46;97412.78;;;26.43
66180;BMP280;52986;44.028;20.466;2023-04-25T10:28:12;97405.75;;;24.99
66180;BMP280;52986;44.028;20.466;2023-04-25T10:30:37;97404.91;;;24.74
66180;BMP280;52986;44.028;20.466;2023-04-25T10:33:16;97396.38;;;24.70
66180;BMP280;52986;44.028;20.466;2023-04-25T10:35:44;97398.13;;;25.72
66180;BMP280;52986;44.028;20.466;2023-04-25T10:38:10;97387.38;;;25.42
66180;BMP280;52986;44.028;20.466;2023-04-25T10:40:37;97384.78;;;25.44
66180;BMP280;52986;44.028;20.466;2023-04-25T10:45:56;97377.06;;;24.52
66180;BMP280;52986;44.028;20.466;2023-04-25T10:48:29;97370.72;;;24.42
66180;BMP280;52986;44.028;20.466;2023-04-25T10:51:11;97373.94;;;24.56
66180;BMP280;52986;44.028;20.466;2023-04-25T10:53:36;97369.66;;;24.30
66180;BMP280;52986;44.028;20.466;2023-04-25T10:56:19;97366.41;;;24.16
66180;BMP280;52986;44.028;20.466;2023-04-25T10:58:45;97357.41;;;24.39
66180;BMP280;52986;44.028;20.466;2023-04-25T11:01:12;97353.00;;;24.43
66180;BMP280;52986;44.028;20.466;2023-04-25T11:03:40;97361.69;;;24.09
66180;BMP280;52986;44.028;20.466;2023-04-25T11:06:15;97353.69;;;23.81
66180;BMP280;52986;44.028;20.466;2023-04-25T11:08:48;97353.16;;;23.52
66180;BMP280;52986;44.028;20.466;2023-04-25T11:11:16;97365.19;;;24.57
66180;BMP280;52986;44.028;20.466;2023-04-25T11:13:41;97353.56;;;25.14
66180;BMP280;52986;44.028;20.466;2023-04-25T11:16:08;97357.81;;;25.32
66180;BMP280;52986;44.028;20.466;2023-04-25T11:18:33;97362.03;;;25.75
66180;BMP280;52986;44.028;20.466;2023-04-25T11:20:59;97358.56;;;27.34
66180;BMP280;52986;44.028;20.466;2023-04-25T11:23:25;97339.47;;;26.73
66180;BMP280;52986;44.028;20.466;2023-04-25T11:25:52;97334.31;;;25.47
66180;BMP280;52986;44.028;20.466;2023-04-25T11:28:21;97349.81;;;25.52
66180;BMP280;52986;44.028;20.466;2023-04-25T11:30:50;97334.00;;;25.60
66180;BMP280;52986;44.028;20.466;2023-04-25T11:33:16;97322.88;;;25.75
66180;BMP280;52986;44.028;20.466;2023-04-25T11:35:42;97327.44;;;26.68
66180;BMP280;52986;44.028;20.466;2023-04-25T11:38:07;97314.41;;;25.38
66180;BMP280;52986;44.028;20.466;2023-04-25T11:40:34;97317.25;;;23.48
66180;BMP280;52986;44.028;20.466;2023-04-25T11:43:00;97312.56;;;22.67
66180;BMP280;52986;44.028;20.466;2023-04-25T11:45:27;97305.75;;;21.81
66180;BMP280;52986;44.028;20.466;2023-04-25T11:47:52;97306.75;;;21.08
66180;BMP280;52986;44.028;20.466;2023-04-25T11:50:18;97311.66;;;21.43
66180;BMP280;52986;44.028;20.466;2023-04-25T11:52:47;97302.19;;;21.44
66180;BMP280;52986;44.028;20.466;2023-04-25T11:55:18;97316.19;;;21.69
66180;BMP280;52986;44.028;20.466;2023-04-25T11:57:47;97294.63;;;22.07
66180;BMP280;52986;44.028;20.466;2023-04-25T12:00:15;97292.53;;;21.64
66180;BMP280;52986;44.028;20.466;2023-04-25T12:02:55;97286.84;;;21.83
66180;BMP280;52986;44.028;20.466;2023-04-25T12:05:24;97285.81;;;21.44
66180;BMP280;52986;44.028;20.466;2023-04-25T12:07:50;97294.09;;;21.31
66180;BMP280;52986;44.028;20.466;2023-04-25T12:10:17;97275.63;;;21.03
66180;BMP280;52986;44.028;20.466;2023-04-25T12:12:47;97280.47;;;20.63
66180;BMP280;52986;44.028;20.466;2023-04-25T12:15:17;97278.84;;;20.60
66180;BMP280;52986;44.028;20.466;2023-04-25T12:17:54;97275.50;;;20.41
66180;BMP280;52986;44.028;20.466;2023-04-25T12:20:24;97282.56;;;20.57
66180;BMP280;52986;44.028;20.466;2023-04-25T12:22:51;97274.78;;;20.74
66180;BMP280;52986;44.028;20.466;2023-04-25T12:28:21;97274.25;;;20.76
66180;BMP280;52986;44.028;20.466;2023-04-25T12:33:38;97258.53;;;20.61
66180;BMP280;52986;44.028;20.466;2023-04-25T12:36:05;97267.09;;;20.65
66180;BMP280;52986;44.028;20.466;2023-04-25T12:38:38;97262.88;;;20.77
66180;BMP280;52986;44.028;20.466;2023-04-25T12:41:04;97259.13;;;20.67
66180;BMP280;52986;44.028;20.466;2023-04-25T12:43:29;97274.00;;;20.53
66180;BMP280;52986;44.028;20.466;2023-04-25T12:45:56;97257.22;;;20.28
66180;BMP280;52986;44.028;20.466;2023-04-25T12:48:21;97262.84;;;20.30
66180;BMP280;52986;44.028;20.466;2023-04-25T12:50:48;97258.81;;;20.57
66180;BMP280;52986;44.028;20.466;2023-04-25T12:53:18;97251.06;;;20.62
66180;BMP280;52986;44.028;20.466;2023-04-25T12:55:45;97253.66;;;19.94
66180;BMP280;52986;44.028;20.466;2023-04-25T12:58:14;97246.03;;;20.05
66180;BMP280;52986;44.028;20.466;2023-04-25T13:00:39;97248.84;;;19.86
66180;BMP280;52986;44.028;20.466;2023-04-25T13:03:05;97241.19;;;19.85
66180;BMP280;52986;44.028;20.466;2023-04-25T13:05:30;97232.94;;;19.91
66180;BMP280;52986;44.028;20.466;2023-04-25T13:07:56;97235.25;;;20.00
66180;BMP280;52986;44.028;20.466;2023-04-25T13:10:22;97236.00;;;20.00
66180;BMP280;52986;44.028;20.466;2023-04-25T13:12:47;97233.16;;;19.66
66180;BMP280;52986;44.028;20.466;2023-04-25T13:15:13;97238.44;;;19.45
66180;BMP280;52986;44.028;20.466;2023-04-25T13:17:40;97233.06;;;19.27
66180;BMP280;52986;44.028;20.466;2023-04-25T13:20:07;97232.84;;;19.25
66180;BMP280;52986;44.028;20.466;2023-04-25T13:22:34;97234.69;;;19.16
66180;BMP280;52986;44.028;20.466;2023-04-25T13:25:02;97238.53;;;19.08
66180;BMP280;52986;44.028;20.466;2023-04-25T13:27:27;97232.19;;;19.18
66180;BMP280;52986;44.028;20.466;2023-04-25T13:29:53;97229.72;;;19.21
66180;BMP280;52986;44.028;20.466;2023-04-25T13:32:18;97229.66;;;19.07
66180;BMP280;52986;44.028;20.466;2023-04-25T13:34:43;97232.38;;;19.07
66180;BMP280;52986;44.028;20.466;2023-04-25T13:37:09;97227.66;;;18.95
66180;BMP280;52986;44.028;20.466;2023-04-25T13:39:34;97224.97;;;19.08
66180;BMP280;52986;44.028;20.466;2023-04-25T13:41:59;97228.03;;;19.17
66180;BMP280;52986;44.028;20.466;2023-04-25T13:44:25;97223.06;;;19.35
66180;BMP280;52986;44.028;20.466;2023-04-25T13:46:50;97225.03;;;19.34
66180;BMP280;52986;44.028;20.466;2023-04-25T13:49:16;97216.19;;;19.47
66180;BMP280;52986;44.028;20.466;2023-04-25T13:51:41;97222.31;;;19.34
66180;BMP280;52986;44.028;20.466;2023-04-25T13:54:07;97222.31;;;19.34
66180;BMP280;52986;44.028;20.466;2023-04-25T13:56:32;97210.84;;;19.41
66180;BMP280;52986;44.028;20.466;2023-04-25T13:58:58;97203.13;;;19.45
66180;BMP280;52986;44.028;20.466;2023-04-25T14:01:23;97212.09;;;19.40